Observations for LIVERPOOL AIRPORT, United Kingdom (EGGP)

EGGP 201550Z 19012KT 9999 FEW012 SCT024 12/08 Q1005 
EGGP 201520Z 22009KT 9999 FEW012 SCT020 12/09 Q1004 
EGGP 201450Z 22012KT 9999 FEW019 SCT029 13/09 Q1004 
EGGP 201420Z 25010KT 9999 FEW018 BKN024 13/10 Q1004 
EGGP 201350Z 24011KT 9999 FEW019 SCT024 13/10 Q1004 
EGGP 201320Z 26009KT 9999 FEW013 SCT024 13/10 Q1004 
EGGP 201250Z 28009KT 9999 FEW013 SCT022 14/11 Q1004 
EGGP 201220Z 27012KT 9999 SCT012 BKN022 13/11 Q1004 
EGGP 201150Z 27014KT 9999 SCT008 BKN015 13/11 Q1004 
EGGP 201120Z 28015KT 9999 VCSH SCT008 BKN013 13/12 Q1003
EGGP 201050Z 27015KT 9999 VCSH SCT005 BKN011 12/12 Q1003
EGGP 201020Z 27018KT 9999 SCT006 OVC011 13/12 Q1003 
EGGP 200950Z 28016KT 9999 OVC010 13/12 Q1002
EGGP 200920Z 28016KT 9999 SCT006 OVC010 13/12 Q1002 
EGGP 200850Z 28017KT 9999 5000E BKN005 13/12 Q1001  
EGGP 200820Z 28017KT 5000 -RA BKN002 13/12 Q1000
EGGP 200750Z 29016KT 9999 -RA SCT004 BKN009 13/12 Q1000 
EGGP 200720Z 29017KT 9999 -RA SCT004 BKN008 13/13 Q0999 
EGGP 200650Z 30012KT 9999 -RA SCT004 BKN008 13/13 Q0998 
EGGP 200620Z 30013KT 9000 -RA SCT008 OVC014 13/13 Q0997 
EGGP 200550Z VRB03KT 4000 -RA OVC002 12/12 Q0997
EGGP 200520Z VRB03KT 4000 1000S -DZ OVC002 12/12 Q0996  
EGGP 200450Z 24005KT 9999 3000W SCT010 11/11 Q0996  
EGGP 200420Z 21003KT 9999 SCT010 11/11 Q0995
EGGP 200350Z 18004KT 9999 FEW009 10/10 Q0995
EGGP 200320Z VRB03KT 9999 FEW009 11/11 Q0995
EGGP 200250Z 18005KT 9999 FEW013 SCT023 12/12 Q0994 
EGGP 200220Z VRB02KT 9999 FEW013 SCT023 12/11 Q0994 
EGGP 200150Z 17004KT 9999 FEW013 SCT023 13/12 Q0994 
EGGP 200120Z 12004KT 9999 FEW013 SCT023 13/12 Q0994 
EGGP 200050Z 13005KT 100V170 9999 FEW013 BKN048 13/12 Q0994 
EGGP 200020Z 14005KT 100V170 9999 FEW013 SCT041 13/12 Q0994 
EGGP 192350Z 15008KT 9999 FEW014 SCT024 BKN048 14/13 Q0994  
EGGP 192320Z 14008KT 110V170 9999 VCSH SCT016 BKN038 14/12 Q0994
EGGP 192250Z 14011KT 110V180 9999 VCSH FEW012 BKN037 14/13 Q0993
EGGP 192220Z 13012G22KT 110V170 9999 VCSH FEW012 BKN034 14/13 Q0993 
EGGP 192150Z 14012KT 110V170 9999 VCSH SCT013 BKN034 14/13 Q0993
EGGP 192120Z 13011KT 100V170 9999 VCSH SCT013 BKN020 14/13 Q0994
EGGP 192050Z 12009KT 9999 VCSH SCT015 BKN024 14/12 Q0994
EGGP 192020Z 12011KT 090V150 9999 -RA FEW013 SCT018 BKN024 14/13 Q0994  
EGGP 191950Z 11009KT 100V160 9999 -RA FEW010 SCT019 BKN023 14/13 Q0995  
EGGP 191920Z 13011KT 9999 8000W -RA FEW009 SCT014 BKN035 13/13 Q0995 RERA   
EGGP 191850Z 14010KT 110V170 9999 -RA FEW009 SCT027 BKN034 14/12 Q0995  
EGGP 191820Z 14010KT 110V170 9999 -RA FEW011 SCT048 14/13 Q0996 
EGGP 191750Z 14007KT 110V170 9999 FEW013 13/13 Q0996
EGGP 191720Z 10007KT 9999 FEW002 13/13 Q0996
EGGP 191650Z 09007KT 9999 VCSH FEW035 13/13 Q0996   
EGGP 191620Z 07006KT 9999 VCSH BKN039 13/13 Q0996   
EGGP 191550Z 05005KT 8000 -RA FEW002 SCT007 BKN045 13/13 Q0997  
EGGP 191520Z 06006KT 7000 -RA FEW001 SCT005 BKN048 13/13 Q0997